KCBM/CBM METAR and TAF weather

Enter ICAO airport designator
Station Type Date Time Source
KCBM METAR 2021/07/26 12:56 UTC NOAA

KCBM 261256Z AUTO 16003KT 10SM CLR 27/24 A2998 RMK AO2 SLP152 T02670235 $


Station Type Date Time Source
KCBM Decoded METAR 2021/07/26 12:56 UTC NOAA

Columbus Air Force Base, MS, United States (KCBM) 33-39N 088-27W
Jul 26, 2021 - 08:56 AM EDT / 2021.07.26 1256 UTC
Wind: from the SSE (160 degrees) at 3 MPH (3 KT):0
Visibility: 10 mile(s):0
Sky conditions: clear
Temperature: 80.1 F (26.7 C)
Dew Point: 74.3 F (23.5 C)
Relative Humidity: 82%
Pressure (altimeter): 29.98 in. Hg (1015 hPa)
ob: KCBM 261256Z AUTO 16003KT 10SM CLR 27/24 A2998 RMK AO2 SLP152 T02670235
cycle: 13

Station Type Date Time Source
KCBM TAF 2021/07/26 11:57 UTC NOAA

TAF KCBM 260900Z 2611/2717 VRB03KT 9999 SCT040 QNH2990INS
BECMG 2618/2619 19006KT 9999 VCTS BKN035CB QNH2992INS
BECMG 2622/2623 VRB06KT 9999 NSW SCT050 QNH2995INS TX33/2619Z TN24/2611Z

Example: see airport list